Lake Oke Center current weather conditions

sailwx.info

Wind from 089 at 3 knots gusting 4

Air temperature 28.8° C
Dewpoint 24.7° C
Water temperature -7999.0° C

Last reported at 2019-Jul-22 15:00 UTC.
Time now 2019-Jul-22 15:59 UTC

Location: N 26°54' W 080°47'.
View on Google Maps.

See reports from other nearby stations

  
Tides and Currents Weather Stations Pressure Air Temp Water Temp Dewpoint Dewpoint Depression Visibility Wind Speed Wind Dir Waves Ship Positions
date/time (UTC)wind fromknots sea level pressurealtimeterstation pressurevisibilityair tempwater tempwave heightnotes
2019-Jul-22 15:00 089 3 gusting 4 28.8-7999.0
2019-Jul-22 14:45 089 3 gusting 4 28.5-7999.0
2019-Jul-22 14:30 086 5 gusting 6 28.2-7999.0
2019-Jul-22 14:15 089 6 gusting 8 28.1-7999.0
2019-Jul-22 14:00 087 7 gusting 8 28.0-7999.0
2019-Jul-22 13:45 081 7 gusting 8 28.1-7999.0
2019-Jul-22 13:30 080 6 gusting 7 28.0-7999.0
2019-Jul-22 13:15 085 6 gusting 7 27.9-7999.0
2019-Jul-22 13:00 080 6 gusting 7 27.6-7999.0
2019-Jul-22 12:45 084 6 gusting 7 27.6-7999.0
2019-Jul-22 12:30 090 5 gusting 6 27.4-7999.0
2019-Jul-22 12:15 095 5 gusting 6 27.4-7999.0
2019-Jul-22 12:00 090 5 gusting 7 27.2-7999.0
2019-Jul-22 11:45 083 5 gusting 6 27.2-7999.0
2019-Jul-22 11:30 075 5 gusting 6 27.0-7999.0
2019-Jul-22 11:15 071 5 gusting 6 26.6-7999.0
2019-Jul-22 11:00 064 6 gusting 8 26.5-7999.0
2019-Jul-22 10:45 054 6 gusting 8 26.5-7999.0
2019-Jul-22 10:30 052 5 gusting 6 26.5-7999.0
2019-Jul-22 10:15 047 5 gusting 6 26.4-7999.0
2019-Jul-22 10:00 051 6 gusting 7 26.4-7999.0
2019-Jul-22 09:45 045 6 gusting 8 26.4-7999.0
2019-Jul-22 09:30 041 7 gusting 8 26.3-7999.0
2019-Jul-22 09:15 028 6 gusting 7 26.4-7999.0
2019-Jul-22 09:00 039 6 gusting 7 26.2-7999.0
2019-Jul-22 08:45 037 6 gusting 7 26.1-7999.0
2019-Jul-22 08:30 032 6 gusting 8 26.0-7999.0
2019-Jul-22 08:15 031 6 gusting 7 26.2-7999.0
2019-Jul-22 08:00 036 5 gusting 6 26.4-7999.0
2019-Jul-22 07:45 038 6 gusting 7 26.3-7999.0
2019-Jul-22 07:30 032 6 gusting 7 26.3-7999.0
2019-Jul-22 07:15 038 6 gusting 7 26.3-7999.0
2019-Jul-22 07:00 044 6 gusting 7 26.4-7999.0
2019-Jul-22 06:45 051 4 gusting 6 26.5-7999.0
2019-Jul-22 06:30 052 3 gusting 5 26.5-7999.0
2019-Jul-22 06:15 051 3 gusting 5 26.4-7999.0
2019-Jul-22 06:00 062 5 gusting 6 26.4-7999.0
2019-Jul-22 05:45 064 5 gusting 6 26.5-7999.0
2019-Jul-22 05:30 051 5 gusting 6 26.6-7999.0
2019-Jul-22 05:15 050 5 gusting 6 26.5-7999.0
2019-Jul-22 05:00 063 3 gusting 5 26.5-7999.0
2019-Jul-22 04:45 055 3 gusting 5 26.5-7999.0
2019-Jul-22 04:30 049 3 gusting 4 26.4-7999.0
2019-Jul-22 04:15 030 4 gusting 5 26.4-7999.0
2019-Jul-22 04:00 023 3 gusting 5 26.3-7999.0
2019-Jul-22 03:45 019 3 gusting 4 26.2-7999.0
2019-Jul-22 03:30 055 4 gusting 5 26.1-7999.0
2019-Jul-22 03:15 242 4 gusting 5 25.9-7999.0
2019-Jul-22 03:00 331 5 gusting 6 25.9-7999.0
2019-Jul-22 02:45 328 5 gusting 6 25.9-7999.0
2019-Jul-22 02:30 321 5 gusting 7 25.9-7999.0
2019-Jul-22 02:15 303 6 gusting 7 25.8-7999.0
2019-Jul-22 02:00 299 7 gusting 8 25.7-7999.0
2019-Jul-22 01:45 302 8 gusting 10 25.8-7999.0
2019-Jul-22 01:30 303 11 gusting 13 25.6-7999.0
2019-Jul-22 01:15 300 13 gusting 16 25.5-7999.0
2019-Jul-22 01:00 300 14 gusting 16 25.2-7999.0
2019-Jul-22 00:45 291 15 gusting 16 25.1-7999.0
2019-Jul-22 00:30 287 15 gusting 18 25.3-7999.0
2019-Jul-22 00:15 276 16 gusting 18 25.3-7999.0
2019-Jul-22 00:00 265 17 gusting 21 25.2-7999.0
2019-Jul-21 23:45 253 21 gusting 23 25.8-7999.0
2019-Jul-21 23:30 205 13 gusting 27 28.1-7999.0
2019-Jul-21 23:15 126 2 gusting 2 29.1-7999.0
2019-Jul-21 23:00 080 2 gusting 3 29.0-7999.0
2019-Jul-21 22:45 081 2 gusting 4 28.8-7999.0
2019-Jul-21 22:30 072 3 gusting 5 28.4-7999.0
2019-Jul-21 22:15 066 5 gusting 6 28.2-7999.0
2019-Jul-21 22:00 066 7 gusting 8 28.4-7999.0
2019-Jul-21 21:45 076 8 gusting 12 28.5-7999.0
2019-Jul-21 21:30 071 10 gusting 13 27.4-7999.0
2019-Jul-21 21:15 040 5 gusting 7 26.9-7999.0
2019-Jul-21 21:00 058 7 gusting 9 26.0-7999.0
2019-Jul-21 20:45 129 5 gusting 18 24.5-7999.0
2019-Jul-21 20:30 185 11 gusting 18 24.1-7999.0
2019-Jul-21 20:15 192 18 gusting 24 26.0-7999.0
2019-Jul-21 19:45 031 5 gusting 7 29.0-7999.0
2019-Jul-21 19:30 037 6 gusting 6 28.8-7999.0
2019-Jul-21 19:15 027 4 gusting 6 28.4-7999.0
2019-Jul-21 19:00 041 5 gusting 6 28.1-7999.0
2019-Jul-21 18:45 086 5 gusting 7 28.4-7999.0
2019-Jul-21 18:30 108 5 gusting 8 28.5-7999.0
2019-Jul-21 18:15 078 9 gusting 11 28.8-7999.0
2019-Jul-21 18:00 059 14 gusting 21 28.0-7999.0
2019-Jul-21 17:45 083 17 gusting 27 28.6-7999.0
2019-Jul-21 17:30 136 9 gusting 14 30.4-7999.0
2019-Jul-21 17:15 162 6 gusting 8 30.4-7999.0
2019-Jul-21 17:00 150 5 gusting 7 30.3-7999.0
2019-Jul-21 16:45 151 4 gusting 7 30.1-7999.0
2019-Jul-21 16:30 143 4 gusting 7 30.1-7999.0
2019-Jul-21 16:15 141 3 gusting 5 30.1-7999.0
2019-Jul-21 16:00 123 4 gusting 5 29.9-7999.0
2019-Jul-21 15:45 119 5 gusting 6 29.7-7999.0
2019-Jul-21 15:30 115 4 gusting 5 29.3-7999.0
2019-Jul-21 15:15 114 3 gusting 5 29.1-7999.0
2019-Jul-21 15:00 125 5 gusting 6 28.8-7999.0
2019-Jul-21 14:45 127 5 gusting 6 28.6-7999.0
2019-Jul-21 14:30 129 6 gusting 6 28.5-7999.0
2019-Jul-21 14:15 129 6 gusting 8 28.3-7999.0
2019-Jul-21 14:00 127 7 gusting 8 28.1-7999.0
2019-Jul-21 13:45 125 7 gusting 8 28.0-7999.0
2019-Jul-21 13:30 132 7 gusting 9 28.1-7999.0
2019-Jul-21 13:15 126 6 gusting 7 28.0-7999.0
2019-Jul-21 12:45 116 7 gusting 8 28.0-7999.0
2019-Jul-21 12:30 106 7 gusting 8 27.8-7999.0
2019-Jul-21 12:15 096 7 gusting 8 27.7-7999.0
2019-Jul-21 12:00 100 7 gusting 9 27.6-7999.0
2019-Jul-21 11:45 101 7 gusting 9 27.4-7999.0
2019-Jul-21 11:30 095 8 gusting 9 27.4-7999.0
2019-Jul-21 11:15 100 7 gusting 9 27.4-7999.0
2019-Jul-21 11:00 093 6 gusting 8 27.3-7999.0
2019-Jul-21 10:45 096 8 gusting 9 27.4-7999.0
2019-Jul-21 10:30 108 8 gusting 9 27.1-7999.0
2019-Jul-21 10:15 100 6 gusting 9 27.1-7999.0
2019-Jul-21 10:00 090 6 gusting 7 27.0-7999.0
2019-Jul-21 09:45 089 6 gusting 7 27.1-7999.0
2019-Jul-21 09:30 107 6 gusting 8 27.1-7999.0
2019-Jul-21 09:15 118 8 gusting 10 27.4-7999.0
2019-Jul-21 09:00 117 5 gusting 7 27.4-7999.0
2019-Jul-21 08:45 106 5 gusting 6 27.4-7999.0
2019-Jul-21 08:30 104 5 gusting 7 27.5-7999.0
2019-Jul-21 08:15 108 6 gusting 8 27.5-7999.0
2019-Jul-21 08:00 119 6 gusting 7 27.6-7999.0
2019-Jul-21 07:45 122 6 gusting 7 27.5-7999.0
2019-Jul-21 07:30 121 6 gusting 8 27.6-7999.0
2019-Jul-21 07:15 123 7 gusting 8 27.6-7999.0
2019-Jul-21 07:00 120 7 gusting 8 27.6-7999.0
2019-Jul-21 06:45 114 7 gusting 8 27.6-7999.0
2019-Jul-21 06:30 114 7 gusting 8 27.8-7999.0
2019-Jul-21 06:15 117 7 gusting 8 27.9-7999.0
2019-Jul-21 06:00 126 7 gusting 8 27.9-7999.0
2019-Jul-21 05:45 107 8 gusting 9 27.9-7999.0
2019-Jul-21 05:30 105 8 gusting 10 27.9-7999.0
2019-Jul-21 05:15 111 10 gusting 11 27.9-7999.0
2019-Jul-21 05:00 105 9 gusting 10 28.0-7999.0
2019-Jul-21 04:45 103 9 gusting 10 28.1-7999.0
2019-Jul-21 04:30 101 8 gusting 9 28.2-7999.0
2019-Jul-21 04:15 101 8 gusting 9 28.2-7999.0
2019-Jul-21 04:00 104 9 gusting 10 28.3-7999.0
2019-Jul-21 03:45 107 8 gusting 10 28.2-7999.0
2019-Jul-21 03:30 109 7 gusting 8 28.1-7999.0
2019-Jul-21 03:15 112 6 gusting 7 28.1-7999.0
2019-Jul-21 03:00 128 5 gusting 6 28.1-7999.0
2019-Jul-21 02:45 138 5 gusting 7 28.2-7999.0
2019-Jul-21 02:30 155 6 gusting 8 28.3-7999.0
2019-Jul-21 02:15 158 7 gusting 8 28.3-7999.0
2019-Jul-21 02:00 152 6 gusting 7 28.4-7999.0
2019-Jul-21 01:45 146 6 gusting 7 28.4-7999.0
2019-Jul-21 01:30 154 6 gusting 6 28.3-7999.0
2019-Jul-21 01:15 160 6 gusting 8 28.3-7999.0
2019-Jul-21 01:00 150 7 gusting 7 28.3-7999.0
2019-Jul-21 00:45 148 6 gusting 7 28.3-7999.0
2019-Jul-21 00:30 144 5 gusting 6 28.4-7999.0
2019-Jul-21 00:15 143 6 gusting 7 28.2-7999.0
2019-Jul-21 00:00 132 5 gusting 7 28.2-7999.0
2019-Jul-20 23:45 134 6 gusting 7 28.3-7999.0
2019-Jul-20 23:30 135 7 gusting 8 27.8-7999.0
2019-Jul-20 23:15 129 5 gusting 6 27.0-7999.0
2019-Jul-20 22:45 153 8 gusting 11 26.3-7999.0
2019-Jul-20 22:30 149 12 gusting 14 26.6-7999.0
2019-Jul-20 22:15 156 12 gusting 15 27.1-7999.0
2019-Jul-20 22:00 134 7 gusting 17 28.8-7999.0
2019-Jul-20 21:45 103 3 gusting 4 28.9-7999.0
2019-Jul-20 21:30 109 2 gusting 3 28.9-7999.0
2019-Jul-20 21:15 135 3 gusting 4 28.7-7999.0
2019-Jul-20 21:00 148 2 gusting 3 28.8-7999.0
2019-Jul-20 20:45 164 2 gusting 3 28.6-7999.0
2019-Jul-20 20:30 155 1 gusting 2 28.5-7999.0
2019-Jul-20 20:15 153 2 gusting 4 28.2-7999.0
2019-Jul-20 20:00 164 5 gusting 8 27.8-7999.0
2019-Jul-20 19:45 154 7 gusting 9 27.8-7999.0
2019-Jul-20 19:30 151 8 gusting 10 27.6-7999.0
2019-Jul-20 19:15 153 8 gusting 12 28.2-7999.0
2019-Jul-20 19:00 171 0 gusting 2 29.3-7999.0
2019-Jul-20 18:45 185 0 gusting 1 28.6-7999.0
2019-Jul-20 18:30 133 2 gusting 3 28.0-7999.0
2019-Jul-20 18:15 136 2 gusting 4 27.9-7999.0
2019-Jul-20 18:00 193 4 gusting 7 27.8-7999.0
2019-Jul-20 17:45 190 5 gusting 8 27.6-7999.0
2019-Jul-20 17:30 181 7 gusting 14 28.1-7999.0
2019-Jul-20 17:15 117 3 gusting 5 29.1-7999.0
2019-Jul-20 17:00 106 5 gusting 7 29.1-7999.0
2019-Jul-20 16:45 097 5 gusting 7 29.1-7999.0
2019-Jul-20 16:30 092 6 gusting 7 29.1-7999.0
2019-Jul-20 16:15 096 5 gusting 7 28.9-7999.0
2019-Jul-20 16:00 104 6 gusting 7 28.8-7999.0
2019-Jul-20 15:45 104 7 gusting 8 28.7-7999.0
2019-Jul-20 15:30 078 4 gusting 6 29.1-7999.0
2019-Jul-20 15:15 070 4 gusting 6 28.8-7999.0
2019-Jul-20 15:00 075 4 gusting 5 28.6-7999.0